sensor_id;sensor_type;location;lat;lon;timestamp;P1;durP1;ratioP1;P2;durP2;ratioP2
52798;SDS011;38667;42.872;74.622;2023-08-12T00:01:58;3.08;;;1.17;;
52798;SDS011;38667;42.872;74.622;2023-08-12T00:04:24;3.17;;;1.10;;
52798;SDS011;38667;42.872;74.622;2023-08-12T00:06:50;3.65;;;1.25;;
52798;SDS011;38667;42.872;74.622;2023-08-12T00:09:16;2.25;;;1.42;;
52798;SDS011;38667;42.872;74.622;2023-08-12T00:11:44;5.65;;;1.77;;
52798;SDS011;38667;42.872;74.622;2023-08-12T00:14:10;3.25;;;1.40;;
52798;SDS011;38667;42.872;74.622;2023-08-12T00:16:37;4.40;;;1.40;;
52798;SDS011;38667;42.872;74.622;2023-08-12T00:19:03;10.27;;;2.33;;
52798;SDS011;38667;42.872;74.622;2023-08-12T00:21:29;4.75;;;1.17;;
52798;SDS011;38667;42.872;74.622;2023-08-12T00:23:56;4.03;;;1.48;;
52798;SDS011;38667;42.872;74.622;2023-08-12T00:26:22;2.25;;;1.45;;
52798;SDS011;38667;42.872;74.622;2023-08-12T00:28:50;2.50;;;1.55;;
52798;SDS011;38667;42.872;74.622;2023-08-12T00:31:16;2.90;;;1.40;;
52798;SDS011;38667;42.872;74.622;2023-08-12T00:33:42;3.58;;;1.33;;
52798;SDS011;38667;42.872;74.622;2023-08-12T00:36:09;4.82;;;1.40;;
52798;SDS011;38667;42.872;74.622;2023-08-12T00:38:35;3.30;;;1.33;;
52798;SDS011;38667;42.872;74.622;2023-08-12T00:41:01;1.98;;;1.20;;
52798;SDS011;38667;42.872;74.622;2023-08-12T00:43:28;5.38;;;1.27;;
52798;SDS011;38667;42.872;74.622;2023-08-12T00:45:56;6.75;;;1.45;;
52798;SDS011;38667;42.872;74.622;2023-08-12T00:48:23;4.40;;;1.40;;
52798;SDS011;38667;42.872;74.622;2023-08-12T00:50:49;1.23;;;1.13;;
52798;SDS011;38667;42.872;74.622;2023-08-12T00:53:17;5.60;;;1.33;;
52798;SDS011;38667;42.872;74.622;2023-08-12T00:55:44;3.03;;;1.27;;
52798;SDS011;38667;42.872;74.622;2023-08-12T00:58:10;3.75;;;1.50;;
52798;SDS011;38667;42.872;74.622;2023-08-12T01:00:37;7.43;;;1.35;;
52798;SDS011;38667;42.872;74.622;2023-08-12T01:03:05;3.85;;;1.63;;
52798;SDS011;38667;42.872;74.622;2023-08-12T01:05:31;4.07;;;1.40;;
52798;SDS011;38667;42.872;74.622;2023-08-12T01:07:58;3.22;;;1.42;;
52798;SDS011;38667;42.872;74.622;2023-08-12T01:10:24;3.05;;;1.25;;
52798;SDS011;38667;42.872;74.622;2023-08-12T01:12:59;5.45;;;1.70;;
52798;SDS011;38667;42.872;74.622;2023-08-12T01:15:35;4.40;;;1.48;;
52798;SDS011;38667;42.872;74.622;2023-08-12T01:18:03;2.42;;;1.45;;
52798;SDS011;38667;42.872;74.622;2023-08-12T01:20:32;3.75;;;1.55;;
52798;SDS011;38667;42.872;74.622;2023-08-12T01:23:07;4.88;;;1.85;;
52798;SDS011;38667;42.872;74.622;2023-08-12T01:25:35;5.78;;;2.00;;
52798;SDS011;38667;42.872;74.622;2023-08-12T01:28:02;3.45;;;1.83;;
52798;SDS011;38667;42.872;74.622;2023-08-12T01:30:28;3.53;;;2.00;;
52798;SDS011;38667;42.872;74.622;2023-08-12T01:32:56;4.15;;;1.50;;
52798;SDS011;38667;42.872;74.622;2023-08-12T01:35:28;3.22;;;2.05;;
52798;SDS011;38667;42.872;74.622;2023-08-12T01:37:59;5.45;;;1.90;;
52798;SDS011;38667;42.872;74.622;2023-08-12T01:40:30;5.80;;;2.72;;
52798;SDS011;38667;42.872;74.622;2023-08-12T01:42:58;4.93;;;2.90;;
52798;SDS011;38667;42.872;74.622;2023-08-12T01:45:25;6.43;;;2.92;;
52798;SDS011;38667;42.872;74.622;2023-08-12T01:47:51;3.40;;;2.13;;
52798;SDS011;38667;42.872;74.622;2023-08-12T01:50:18;5.47;;;1.83;;
52798;SDS011;38667;42.872;74.622;2023-08-12T01:52:44;5.00;;;1.75;;
52798;SDS011;38667;42.872;74.622;2023-08-12T01:55:11;3.30;;;1.73;;
52798;SDS011;38667;42.872;74.622;2023-08-12T01:57:39;2.70;;;1.70;;
52798;SDS011;38667;42.872;74.622;2023-08-12T02:00:05;6.35;;;1.90;;
52798;SDS011;38667;42.872;74.622;2023-08-12T02:02:32;7.05;;;2.35;;
52798;SDS011;38667;42.872;74.622;2023-08-12T02:04:59;3.35;;;1.92;;
52798;SDS011;38667;42.872;74.622;2023-08-12T02:07:25;1.98;;;1.40;;
52798;SDS011;38667;42.872;74.622;2023-08-12T02:09:51;5.28;;;1.75;;
52798;SDS011;38667;42.872;74.622;2023-08-12T02:12:17;6.40;;;1.90;;
52798;SDS011;38667;42.872;74.622;2023-08-12T02:14:45;4.32;;;1.60;;
52798;SDS011;38667;42.872;74.622;2023-08-12T02:17:12;4.85;;;1.35;;
52798;SDS011;38667;42.872;74.622;2023-08-12T02:19:38;3.35;;;1.80;;
52798;SDS011;38667;42.872;74.622;2023-08-12T02:22:04;3.58;;;1.20;;
52798;SDS011;38667;42.872;74.622;2023-08-12T02:24:30;3.20;;;1.30;;
52798;SDS011;38667;42.872;74.622;2023-08-12T02:26:57;3.53;;;0.93;;
52798;SDS011;38667;42.872;74.622;2023-08-12T02:29:23;3.85;;;1.30;;
52798;SDS011;38667;42.872;74.622;2023-08-12T02:31:51;3.05;;;1.33;;
52798;SDS011;38667;42.872;74.622;2023-08-12T02:34:17;5.72;;;1.17;;
52798;SDS011;38667;42.872;74.622;2023-08-12T02:36:44;2.60;;;1.27;;
52798;SDS011;38667;42.872;74.622;2023-08-12T02:39:10;3.60;;;1.08;;
52798;SDS011;38667;42.872;74.622;2023-08-12T02:41:37;5.05;;;1.40;;
52798;SDS011;38667;42.872;74.622;2023-08-12T02:44:03;3.80;;;1.50;;
52798;SDS011;38667;42.872;74.622;2023-08-12T02:46:30;5.20;;;1.48;;
52798;SDS011;38667;42.872;74.622;2023-08-12T02:48:57;5.35;;;1.63;;
52798;SDS011;38667;42.872;74.622;2023-08-12T02:51:24;4.47;;;1.55;;
52798;SDS011;38667;42.872;74.622;2023-08-12T02:53:50;2.92;;;1.60;;
52798;SDS011;38667;42.872;74.622;2023-08-12T02:56:16;3.92;;;1.77;;
52798;SDS011;38667;42.872;74.622;2023-08-12T02:58:42;3.42;;;1.80;;
52798;SDS011;38667;42.872;74.622;2023-08-12T03:01:09;9.15;;;1.92;;
52798;SDS011;38667;42.872;74.622;2023-08-12T03:03:35;6.20;;;1.95;;
52798;SDS011;38667;42.872;74.622;2023-08-12T03:06:03;6.88;;;2.38;;
52798;SDS011;38667;42.872;74.622;2023-08-12T03:08:30;6.03;;;2.33;;
52798;SDS011;38667;42.872;74.622;2023-08-12T03:11:00;3.42;;;1.95;;
52798;SDS011;38667;42.872;74.622;2023-08-12T03:13:26;7.70;;;2.17;;
52798;SDS011;38667;42.872;74.622;2023-08-12T03:15:53;5.10;;;2.17;;
52798;SDS011;38667;42.872;74.622;2023-08-12T03:18:19;7.43;;;2.55;;
52798;SDS011;38667;42.872;74.622;2023-08-12T03:20:46;4.43;;;2.10;;
52798;SDS011;38667;42.872;74.622;2023-08-12T03:23:13;7.72;;;2.00;;
52798;SDS011;38667;42.872;74.622;2023-08-12T03:25:40;7.15;;;2.50;;
52798;SDS011;38667;42.872;74.622;2023-08-12T03:28:07;5.35;;;2.53;;
52798;SDS011;38667;42.872;74.622;2023-08-12T03:30:33;11.25;;;2.60;;
52798;SDS011;38667;42.872;74.622;2023-08-12T03:33:00;7.47;;;2.22;;
52798;SDS011;38667;42.872;74.622;2023-08-12T03:35:26;9.73;;;2.50;;
52798;SDS011;38667;42.872;74.622;2023-08-12T03:37:52;5.45;;;2.20;;
52798;SDS011;38667;42.872;74.622;2023-08-12T03:40:20;9.95;;;2.38;;
52798;SDS011;38667;42.872;74.622;2023-08-12T03:42:46;8.93;;;2.78;;
52798;SDS011;38667;42.872;74.622;2023-08-12T03:45:13;6.65;;;2.35;;
52798;SDS011;38667;42.872;74.622;2023-08-12T03:47:39;5.53;;;2.35;;
52798;SDS011;38667;42.872;74.622;2023-08-12T03:50:06;6.50;;;3.03;;
52798;SDS011;38667;42.872;74.622;2023-08-12T03:52:32;7.72;;;2.60;;
52798;SDS011;38667;42.872;74.622;2023-08-12T03:54:59;7.55;;;2.75;;
52798;SDS011;38667;42.872;74.622;2023-08-12T03:57:27;7.40;;;2.90;;
52798;SDS011;38667;42.872;74.622;2023-08-12T03:59:53;12.50;;;2.90;;
52798;SDS011;38667;42.872;74.622;2023-08-12T04:02:19;8.05;;;2.30;;
52798;SDS011;38667;42.872;74.622;2023-08-12T04:04:46;9.52;;;2.67;;
52798;SDS011;38667;42.872;74.622;2023-08-12T04:07:12;5.43;;;3.08;;
52798;SDS011;38667;42.872;74.622;2023-08-12T04:09:38;6.28;;;2.50;;
52798;SDS011;38667;42.872;74.622;2023-08-12T04:12:05;9.13;;;2.70;;
52798;SDS011;38667;42.872;74.622;2023-08-12T04:14:33;6.90;;;2.60;;
52798;SDS011;38667;42.872;74.622;2023-08-12T04:16:59;6.32;;;2.75;;
52798;SDS011;38667;42.872;74.622;2023-08-12T04:19:25;6.90;;;2.90;;
52798;SDS011;38667;42.872;74.622;2023-08-12T04:21:52;11.93;;;2.78;;
52798;SDS011;38667;42.872;74.622;2023-08-12T04:24:18;5.75;;;2.50;;
52798;SDS011;38667;42.872;74.622;2023-08-12T04:26:44;6.53;;;2.65;;
52798;SDS011;38667;42.872;74.622;2023-08-12T04:29:10;8.68;;;3.03;;
52798;SDS011;38667;42.872;74.622;2023-08-12T04:31:39;8.05;;;2.63;;
52798;SDS011;38667;42.872;74.622;2023-08-12T04:34:06;4.88;;;2.50;;
52798;SDS011;38667;42.872;74.622;2023-08-12T04:36:32;7.97;;;2.70;;
52798;SDS011;38667;42.872;74.622;2023-08-12T04:38:58;7.78;;;3.10;;
52798;SDS011;38667;42.872;74.622;2023-08-12T04:41:25;6.55;;;2.40;;
52798;SDS011;38667;42.872;74.622;2023-08-12T04:43:51;12.63;;;2.80;;
52798;SDS011;38667;42.872;74.622;2023-08-12T04:46:17;5.68;;;2.47;;
52798;SDS011;38667;42.872;74.622;2023-08-12T04:48:45;10.63;;;2.50;;
52798;SDS011;38667;42.872;74.622;2023-08-12T04:51:12;11.95;;;2.50;;
52798;SDS011;38667;42.872;74.622;2023-08-12T04:53:38;6.32;;;2.55;;
52798;SDS011;38667;42.872;74.622;2023-08-12T04:56:04;2.97;;;2.05;;
52798;SDS011;38667;42.872;74.622;2023-08-12T04:58:31;5.68;;;2.08;;
52798;SDS011;38667;42.872;74.622;2023-08-12T05:00:57;6.97;;;2.45;;
52798;SDS011;38667;42.872;74.622;2023-08-12T05:03:23;5.57;;;2.45;;
52798;SDS011;38667;42.872;74.622;2023-08-12T05:05:51;4.82;;;2.35;;
52798;SDS011;38667;42.872;74.622;2023-08-12T05:08:18;6.03;;;2.47;;
52798;SDS011;38667;42.872;74.622;2023-08-12T05:10:46;9.80;;;2.70;;
52798;SDS011;38667;42.872;74.622;2023-08-12T05:13:13;4.78;;;2.47;;
52798;SDS011;38667;42.872;74.622;2023-08-12T05:15:39;4.88;;;2.20;;
52798;SDS011;38667;42.872;74.622;2023-08-12T05:18:06;4.97;;;2.22;;
52798;SDS011;38667;42.872;74.622;2023-08-12T05:20:32;7.90;;;2.10;;
52798;SDS011;38667;42.872;74.622;2023-08-12T05:23:00;7.32;;;2.38;;
52798;SDS011;38667;42.872;74.622;2023-08-12T05:25:26;6.88;;;2.83;;
52798;SDS011;38667;42.872;74.622;2023-08-12T05:27:52;7.68;;;2.33;;
52798;SDS011;38667;42.872;74.622;2023-08-12T05:30:19;7.10;;;2.50;;
52798;SDS011;38667;42.872;74.622;2023-08-12T05:32:45;4.53;;;2.60;;
52798;SDS011;38667;42.872;74.622;2023-08-12T05:35:11;12.27;;;2.85;;
52798;SDS011;38667;42.872;74.622;2023-08-12T05:37:38;4.68;;;2.65;;
52798;SDS011;38667;42.872;74.622;2023-08-12T05:40:07;4.30;;;2.40;;
52798;SDS011;38667;42.872;74.622;2023-08-12T05:42:34;4.30;;;2.90;;
52798;SDS011;38667;42.872;74.622;2023-08-12T05:45:00;3.63;;;2.55;;
52798;SDS011;38667;42.872;74.622;2023-08-12T05:47:27;5.65;;;3.10;;
52798;SDS011;38667;42.872;74.622;2023-08-12T05:49:53;5.82;;;3.10;;
52798;SDS011;38667;42.872;74.622;2023-08-12T05:52:19;4.93;;;2.70;;
52798;SDS011;38667;42.872;74.622;2023-08-12T05:54:46;5.57;;;3.40;;
52798;SDS011;38667;42.872;74.622;2023-08-12T05:57:13;7.15;;;3.15;;
52798;SDS011;38667;42.872;74.622;2023-08-12T05:59:40;4.65;;;2.80;;
52798;SDS011;38667;42.872;74.622;2023-08-12T06:02:06;5.47;;;3.13;;
52798;SDS011;38667;42.872;74.622;2023-08-12T06:04:32;5.28;;;2.72;;
52798;SDS011;38667;42.872;74.622;2023-08-12T06:06:59;2.97;;;2.50;;
52798;SDS011;38667;42.872;74.622;2023-08-12T06:09:25;7.60;;;2.70;;
52798;SDS011;38667;42.872;74.622;2023-08-12T06:11:51;7.85;;;3.00;;
52798;SDS011;38667;42.872;74.622;2023-08-12T06:14:19;9.48;;;3.00;;
52798;SDS011;38667;42.872;74.622;2023-08-12T06:16:46;3.95;;;2.70;;
52798;SDS011;38667;42.872;74.622;2023-08-12T06:19:12;3.67;;;3.03;;
52798;SDS011;38667;42.872;74.622;2023-08-12T06:21:38;4.30;;;3.10;;
52798;SDS011;38667;42.872;74.622;2023-08-12T06:24:05;6.03;;;3.40;;
52798;SDS011;38667;42.872;74.622;2023-08-12T06:26:31;5.22;;;3.45;;
52798;SDS011;38667;42.872;74.622;2023-08-12T06:28:58;7.07;;;3.92;;
52798;SDS011;38667;42.872;74.622;2023-08-12T06:31:25;6.50;;;3.38;;
52798;SDS011;38667;42.872;74.622;2023-08-12T06:33:52;9.82;;;3.20;;
52798;SDS011;38667;42.872;74.622;2023-08-12T06:36:18;7.40;;;3.38;;
52798;SDS011;38667;42.872;74.622;2023-08-12T06:38:44;7.38;;;3.60;;
52798;SDS011;38667;42.872;74.622;2023-08-12T06:41:11;10.10;;;3.65;;
52798;SDS011;38667;42.872;74.622;2023-08-12T06:43:37;6.18;;;3.47;;
52798;SDS011;38667;42.872;74.622;2023-08-12T06:46:03;5.57;;;3.35;;
52798;SDS011;38667;42.872;74.622;2023-08-12T06:48:31;8.80;;;4.47;;
52798;SDS011;38667;42.872;74.622;2023-08-12T06:50:57;7.32;;;3.50;;
52798;SDS011;38667;42.872;74.622;2023-08-12T06:53:24;5.80;;;3.70;;
52798;SDS011;38667;42.872;74.622;2023-08-12T06:55:51;8.70;;;3.95;;
52798;SDS011;38667;42.872;74.622;2023-08-12T06:58:18;8.25;;;4.10;;
52798;SDS011;38667;42.872;74.622;2023-08-12T07:00:44;5.00;;;4.05;;
52798;SDS011;38667;42.872;74.622;2023-08-12T07:03:10;4.82;;;3.75;;
52798;SDS011;38667;42.872;74.622;2023-08-12T07:05:38;6.53;;;3.95;;
52798;SDS011;38667;42.872;74.622;2023-08-12T07:08:04;10.70;;;3.90;;
52798;SDS011;38667;42.872;74.622;2023-08-12T07:10:31;6.75;;;3.88;;
52798;SDS011;38667;42.872;74.622;2023-08-12T07:12:57;7.38;;;4.28;;
52798;SDS011;38667;42.872;74.622;2023-08-12T07:15:23;7.75;;;4.07;;
52798;SDS011;38667;42.872;74.622;2023-08-12T07:17:50;7.07;;;4.13;;
52798;SDS011;38667;42.872;74.622;2023-08-12T07:20:16;8.43;;;4.28;;
52798;SDS011;38667;42.872;74.622;2023-08-12T07:22:44;8.82;;;4.20;;
52798;SDS011;38667;42.872;74.622;2023-08-12T07:25:10;7.25;;;3.88;;
52798;SDS011;38667;42.872;74.622;2023-08-12T07:27:37;8.88;;;4.88;;
52798;SDS011;38667;42.872;74.622;2023-08-12T07:30:03;8.30;;;4.35;;
52798;SDS011;38667;42.872;74.622;2023-08-12T07:32:30;6.05;;;3.78;;
52798;SDS011;38667;42.872;74.622;2023-08-12T07:34:57;4.47;;;3.90;;
52798;SDS011;38667;42.872;74.622;2023-08-12T07:37:23;7.60;;;4.00;;
52798;SDS011;38667;42.872;74.622;2023-08-12T07:39:51;5.57;;;3.80;;
52798;SDS011;38667;42.872;74.622;2023-08-12T07:42:17;6.20;;;3.53;;
52798;SDS011;38667;42.872;74.622;2023-08-12T07:44:43;6.85;;;3.67;;
52798;SDS011;38667;42.872;74.622;2023-08-12T07:47:10;6.13;;;3.53;;
52798;SDS011;38667;42.872;74.622;2023-08-12T07:49:36;6.97;;;3.95;;
52798;SDS011;38667;42.872;74.622;2023-08-12T07:52:02;6.88;;;3.42;;
52798;SDS011;38667;42.872;74.622;2023-08-12T07:54:29;8.43;;;3.92;;
52798;SDS011;38667;42.872;74.622;2023-08-12T07:56:57;5.88;;;3.45;;
52798;SDS011;38667;42.872;74.622;2023-08-12T07:59:23;6.80;;;3.70;;
52798;SDS011;38667;42.872;74.622;2023-08-12T08:01:50;5.63;;;4.05;;
52798;SDS011;38667;42.872;74.622;2023-08-12T08:04:16;11.07;;;4.00;;
52798;SDS011;38667;42.872;74.622;2023-08-12T08:06:42;9.48;;;3.85;;
52798;SDS011;38667;42.872;74.622;2023-08-12T08:09:09;5.95;;;3.75;;
52798;SDS011;38667;42.872;74.622;2023-08-12T08:11:35;9.73;;;4.10;;
52798;SDS011;38667;42.872;74.622;2023-08-12T08:14:03;5.82;;;4.28;;
52798;SDS011;38667;42.872;74.622;2023-08-12T08:16:30;13.52;;;4.80;;
52798;SDS011;38667;42.872;74.622;2023-08-12T08:18:56;12.13;;;4.18;;
52798;SDS011;38667;42.872;74.622;2023-08-12T08:21:22;8.23;;;4.07;;
52798;SDS011;38667;42.872;74.622;2023-08-12T08:23:49;12.63;;;4.70;;
52798;SDS011;38667;42.872;74.622;2023-08-12T08:26:15;13.18;;;4.53;;
52798;SDS011;38667;42.872;74.622;2023-08-12T08:28:41;8.57;;;4.10;;
52798;SDS011;38667;42.872;74.622;2023-08-12T08:31:09;7.57;;;4.43;;
52798;SDS011;38667;42.872;74.622;2023-08-12T08:33:35;7.70;;;4.05;;
52798;SDS011;38667;42.872;74.622;2023-08-12T08:36:02;7.00;;;4.15;;
52798;SDS011;38667;42.872;74.622;2023-08-12T08:38:28;5.82;;;4.20;;
52798;SDS011;38667;42.872;74.622;2023-08-12T08:40:55;6.07;;;4.25;;
52798;SDS011;38667;42.872;74.622;2023-08-12T08:43:23;8.82;;;3.75;;
52798;SDS011;38667;42.872;74.622;2023-08-12T08:45:52;6.10;;;3.70;;
52798;SDS011;38667;42.872;74.622;2023-08-12T08:48:20;8.82;;;4.95;;
52798;SDS011;38667;42.872;74.622;2023-08-12T08:50:47;6.80;;;4.20;;
52798;SDS011;38667;42.872;74.622;2023-08-12T08:53:14;9.70;;;4.30;;
52798;SDS011;38667;42.872;74.622;2023-08-12T08:55:43;8.00;;;4.38;;
52798;SDS011;38667;42.872;74.622;2023-08-12T08:58:10;7.43;;;4.38;;
52798;SDS011;38667;42.872;74.622;2023-08-12T09:00:37;8.95;;;4.20;;
52798;SDS011;38667;42.872;74.622;2023-08-12T09:03:04;8.07;;;4.28;;
52798;SDS011;38667;42.872;74.622;2023-08-12T09:05:33;11.00;;;5.22;;
52798;SDS011;38667;42.872;74.622;2023-08-12T09:08:00;12.23;;;4.38;;
52798;SDS011;38667;42.872;74.622;2023-08-12T09:10:28;9.38;;;3.88;;
52798;SDS011;38667;42.872;74.622;2023-08-12T09:12:56;12.00;;;4.60;;
52798;SDS011;38667;42.872;74.622;2023-08-12T09:15:22;6.47;;;3.70;;
52798;SDS011;38667;42.872;74.622;2023-08-12T09:17:49;5.47;;;3.58;;
52798;SDS011;38667;42.872;74.622;2023-08-12T09:20:15;7.32;;;3.55;;
52798;SDS011;38667;42.872;74.622;2023-08-12T09:22:43;10.75;;;3.88;;
52798;SDS011;38667;42.872;74.622;2023-08-12T09:25:10;5.78;;;3.55;;
52798;SDS011;38667;42.872;74.622;2023-08-12T09:27:36;9.43;;;3.97;;
52798;SDS011;38667;42.872;74.622;2023-08-12T09:30:03;7.78;;;3.75;;
52798;SDS011;38667;42.872;74.622;2023-08-12T09:32:30;6.05;;;3.65;;
52798;SDS011;38667;42.872;74.622;2023-08-12T09:34:57;11.82;;;3.88;;
52798;SDS011;38667;42.872;74.622;2023-08-12T09:37:24;5.78;;;3.83;;
52798;SDS011;38667;42.872;74.622;2023-08-12T09:39:52;8.55;;;3.88;;
52798;SDS011;38667;42.872;74.622;2023-08-12T09:42:18;7.93;;;4.22;;
52798;SDS011;38667;42.872;74.622;2023-08-12T09:44:44;11.70;;;3.97;;
52798;SDS011;38667;42.872;74.622;2023-08-12T09:47:11;9.48;;;4.00;;
52798;SDS011;38667;42.872;74.622;2023-08-12T09:49:38;17.90;;;4.65;;
52798;SDS011;38667;42.872;74.622;2023-08-12T09:52:04;12.48;;;4.85;;
52798;SDS011;38667;42.872;74.622;2023-08-12T09:54:31;8.75;;;5.03;;
52798;SDS011;38667;42.872;74.622;2023-08-12T09:57:00;9.90;;;4.88;;
52798;SDS011;38667;42.872;74.622;2023-08-12T09:59:29;6.97;;;4.70;;
52798;SDS011;38667;42.872;74.622;2023-08-12T10:01:56;8.10;;;4.53;;
52798;SDS011;38667;42.872;74.622;2023-08-12T10:04:25;9.68;;;5.30;;
52798;SDS011;38667;42.872;74.622;2023-08-12T10:06:54;10.65;;;4.90;;
52798;SDS011;38667;42.872;74.622;2023-08-12T10:09:21;8.05;;;4.97;;
52798;SDS011;38667;42.872;74.622;2023-08-12T10:11:48;10.02;;;5.13;;
52798;SDS011;38667;42.872;74.622;2023-08-12T10:14:16;12.45;;;6.32;;
52798;SDS011;38667;42.872;74.622;2023-08-12T10:16:46;10.30;;;5.90;;
52798;SDS011;38667;42.872;74.622;2023-08-12T10:19:12;10.18;;;4.97;;
52798;SDS011;38667;42.872;74.622;2023-08-12T10:21:41;8.32;;;4.53;;
52798;SDS011;38667;42.872;74.622;2023-08-12T10:24:09;6.47;;;4.75;;
52798;SDS011;38667;42.872;74.622;2023-08-12T10:26:36;7.45;;;4.55;;
52798;SDS011;38667;42.872;74.622;2023-08-12T10:29:03;8.27;;;4.43;;
52798;SDS011;38667;42.872;74.622;2023-08-12T10:31:31;6.47;;;5.03;;
52798;SDS011;38667;42.872;74.622;2023-08-12T10:33:58;11.43;;;5.13;;
52798;SDS011;38667;42.872;74.622;2023-08-12T10:36:25;14.57;;;5.40;;
52798;SDS011;38667;42.872;74.622;2023-08-12T10:38:52;10.40;;;4.30;;
52798;SDS011;38667;42.872;74.622;2023-08-12T10:41:19;8.10;;;3.85;;
52798;SDS011;38667;42.872;74.622;2023-08-12T10:43:53;9.63;;;4.68;;
52798;SDS011;38667;42.872;74.622;2023-08-12T10:46:23;6.32;;;4.32;;
52798;SDS011;38667;42.872;74.622;2023-08-12T10:49:01;6.97;;;4.70;;
52798;SDS011;38667;42.872;74.622;2023-08-12T10:51:41;10.98;;;4.93;;
52798;SDS011;38667;42.872;74.622;2023-08-12T10:54:13;8.30;;;5.25;;
52798;SDS011;38667;42.872;74.622;2023-08-12T10:59:51;11.88;;;5.18;;
52798;SDS011;38667;42.872;74.622;2023-08-12T11:02:19;14.18;;;5.35;;
52798;SDS011;38667;42.872;74.622;2023-08-12T11:04:51;9.70;;;4.65;;
52798;SDS011;38667;42.872;74.622;2023-08-12T11:07:18;9.85;;;4.93;;
52798;SDS011;38667;42.872;74.622;2023-08-12T11:09:45;10.18;;;4.80;;
52798;SDS011;38667;42.872;74.622;2023-08-12T11:12:17;7.65;;;4.60;;
52798;SDS011;38667;42.872;74.622;2023-08-12T11:14:47;8.10;;;4.80;;
52798;SDS011;38667;42.872;74.622;2023-08-12T11:17:14;8.68;;;4.47;;
52798;SDS011;38667;42.872;74.622;2023-08-12T11:19:40;11.15;;;4.82;;
52798;SDS011;38667;42.872;74.622;2023-08-12T11:22:08;8.32;;;5.25;;
52798;SDS011;38667;42.872;74.622;2023-08-12T11:24:35;7.70;;;5.10;;
52798;SDS011;38667;42.872;74.622;2023-08-12T11:27:01;10.27;;;4.53;;
52798;SDS011;38667;42.872;74.622;2023-08-12T11:29:28;9.95;;;4.95;;
52798;SDS011;38667;42.872;74.622;2023-08-12T11:31:54;9.20;;;4.55;;
52798;SDS011;38667;42.872;74.622;2023-08-12T11:34:20;5.25;;;4.05;;
52798;SDS011;38667;42.872;74.622;2023-08-12T11:36:47;7.25;;;3.85;;
52798;SDS011;38667;42.872;74.622;2023-08-12T11:39:15;8.95;;;3.72;;
52798;SDS011;38667;42.872;74.622;2023-08-12T11:41:41;8.40;;;4.22;;
52798;SDS011;38667;42.872;74.622;2023-08-12T11:44:11;6.00;;;3.92;;
52798;SDS011;38667;42.872;74.622;2023-08-12T11:46:37;10.10;;;4.18;;
52798;SDS011;38667;42.872;74.622;2023-08-12T11:49:03;7.55;;;3.95;;
52798;SDS011;38667;42.872;74.622;2023-08-12T11:51:30;8.55;;;3.92;;
52798;SDS011;38667;42.872;74.622;2023-08-12T11:53:56;7.97;;;4.47;;
52798;SDS011;38667;42.872;74.622;2023-08-12T11:56:24;9.25;;;4.22;;
52798;SDS011;38667;42.872;74.622;2023-08-12T11:58:51;9.85;;;4.32;;
52798;SDS011;38667;42.872;74.622;2023-08-12T12:01:18;7.90;;;4.50;;
52798;SDS011;38667;42.872;74.622;2023-08-12T12:03:44;9.95;;;4.07;;
52798;SDS011;38667;42.872;74.622;2023-08-12T12:06:12;12.95;;;4.45;;
52798;SDS011;38667;42.872;74.622;2023-08-12T12:08:38;11.63;;;3.85;;
52798;SDS011;38667;42.872;74.622;2023-08-12T12:11:05;8.70;;;4.00;;
52798;SDS011;38667;42.872;74.622;2023-08-12T12:13:33;17.02;;;4.78;;
52798;SDS011;38667;42.872;74.622;2023-08-12T12:16:00;13.00;;;4.40;;
52798;SDS011;38667;42.872;74.622;2023-08-12T12:18:26;9.85;;;4.40;;
52798;SDS011;38667;42.872;74.622;2023-08-12T12:20:54;9.13;;;4.88;;
52798;SDS011;38667;42.872;74.622;2023-08-12T12:23:20;13.90;;;4.78;;
52798;SDS011;38667;42.872;74.622;2023-08-12T12:25:47;9.38;;;4.43;;
52798;SDS011;38667;42.872;74.622;2023-08-12T12:28:13;13.45;;;4.75;;
52798;SDS011;38667;42.872;74.622;2023-08-12T12:30:41;8.80;;;5.50;;
52798;SDS011;38667;42.872;74.622;2023-08-12T12:33:07;15.43;;;4.88;;
52798;SDS011;38667;42.872;74.622;2023-08-12T12:35:33;8.43;;;5.28;;
52798;SDS011;38667;42.872;74.622;2023-08-12T12:38:00;18.48;;;5.30;;
52798;SDS011;38667;42.872;74.622;2023-08-12T12:40:26;16.92;;;5.15;;
52798;SDS011;38667;42.872;74.622;2023-08-12T12:42:52;9.27;;;5.35;;
52798;SDS011;38667;42.872;74.622;2023-08-12T12:45:19;8.23;;;5.07;;
52798;SDS011;38667;42.872;74.622;2023-08-12T12:47:46;12.85;;;4.97;;
52798;SDS011;38667;42.872;74.622;2023-08-12T12:50:13;8.10;;;4.75;;
52798;SDS011;38667;42.872;74.622;2023-08-12T12:52:39;8.70;;;4.82;;
52798;SDS011;38667;42.872;74.622;2023-08-12T12:55:05;17.90;;;5.43;;
52798;SDS011;38667;42.872;74.622;2023-08-12T12:57:33;9.90;;;4.60;;
52798;SDS011;38667;42.872;74.622;2023-08-12T12:59:59;13.65;;;7.00;;
52798;SDS011;38667;42.872;74.622;2023-08-12T13:02:25;13.82;;;6.15;;
52798;SDS011;38667;42.872;74.622;2023-08-12T13:04:53;11.02;;;6.53;;
52798;SDS011;38667;42.872;74.622;2023-08-12T13:07:19;13.38;;;7.13;;
52798;SDS011;38667;42.872;74.622;2023-08-12T13:09:46;16.85;;;6.78;;
52798;SDS011;38667;42.872;74.622;2023-08-12T13:12:12;11.77;;;7.22;;
52798;SDS011;38667;42.872;74.622;2023-08-12T13:14:38;13.80;;;7.13;;
52798;SDS011;38667;42.872;74.622;2023-08-12T13:17:05;10.15;;;6.95;;
52798;SDS011;38667;42.872;74.622;2023-08-12T13:19:31;12.00;;;6.90;;
52798;SDS011;38667;42.872;74.622;2023-08-12T13:21:59;16.63;;;6.80;;
52798;SDS011;38667;42.872;74.622;2023-08-12T13:24:25;11.88;;;6.53;;
52798;SDS011;38667;42.872;74.622;2023-08-12T13:26:52;11.27;;;7.05;;
52798;SDS011;38667;42.872;74.622;2023-08-12T13:29:18;11.00;;;6.97;;
52798;SDS011;38667;42.872;74.622;2023-08-12T13:31:44;13.82;;;7.38;;
52798;SDS011;38667;42.872;74.622;2023-08-12T13:34:10;10.18;;;6.30;;
52798;SDS011;38667;42.872;74.622;2023-08-12T13:36:37;13.15;;;6.30;;
52798;SDS011;38667;42.872;74.622;2023-08-12T13:39:05;10.55;;;5.63;;
52798;SDS011;38667;42.872;74.622;2023-08-12T13:41:31;13.82;;;6.95;;
52798;SDS011;38667;42.872;74.622;2023-08-12T13:43:57;12.10;;;6.43;;
52798;SDS011;38667;42.872;74.622;2023-08-12T13:46:23;11.52;;;6.43;;
52798;SDS011;38667;42.872;74.622;2023-08-12T13:48:50;8.57;;;5.68;;
52798;SDS011;38667;42.872;74.622;2023-08-12T13:51:17;8.70;;;5.57;;
52798;SDS011;38667;42.872;74.622;2023-08-12T13:53:44;11.38;;;5.43;;
52798;SDS011;38667;42.872;74.622;2023-08-12T13:56:11;8.77;;;5.70;;
52798;SDS011;38667;42.872;74.622;2023-08-12T13:58:38;9.07;;;6.10;;
52798;SDS011;38667;42.872;74.622;2023-08-12T14:01:04;14.65;;;5.43;;
52798;SDS011;38667;42.872;74.622;2023-08-12T14:03:31;11.15;;;5.78;;
52798;SDS011;38667;42.872;74.622;2023-08-12T14:05:58;13.32;;;6.95;;
52798;SDS011;38667;42.872;74.622;2023-08-12T14:08:24;8.55;;;5.78;;
52798;SDS011;38667;42.872;74.622;2023-08-12T14:10:51;7.97;;;5.78;;
52798;SDS011;38667;42.872;74.622;2023-08-12T14:13:19;9.88;;;6.03;;
52798;SDS011;38667;42.872;74.622;2023-08-12T14:15:45;10.98;;;5.95;;
52798;SDS011;38667;42.872;74.622;2023-08-12T14:18:11;9.00;;;6.10;;
52798;SDS011;38667;42.872;74.622;2023-08-12T14:20:37;6.75;;;5.35;;
52798;SDS011;38667;42.872;74.622;2023-08-12T14:23:04;7.63;;;5.70;;
52798;SDS011;38667;42.872;74.622;2023-08-12T14:25:30;6.43;;;5.30;;
52798;SDS011;38667;42.872;74.622;2023-08-12T14:27:56;8.05;;;4.90;;
52798;SDS011;38667;42.872;74.622;2023-08-12T14:30:25;7.72;;;5.32;;
52798;SDS011;38667;42.872;74.622;2023-08-12T14:32:51;9.05;;;5.68;;